Time;durP1;ratioP1;P1;durP2;ratioP2;P2;SDS_P1;SDS_P2;PMS_P1;PMS_P2;Temp;Humidity;BMP_temperature;BMP_pressure;BME280_temperature;BME280_humidity;BME280_pressure;Samples;Min_cycle;Max_cycle;Signal;HPM_P1;HPM_P2
2023/03/29 00:02:31;;;;;;;11.85;4.30;;;;;;;3.72;65.97;101379.53;5031149;28;20216;-67
2023/03/29 00:05:05;;;;;;;13.48;4.60;;;;;;;3.78;65.98;101383.75;5049281;28;20115;-67
2023/03/29 00:07:33;;;;;;;16.58;4.40;;;;;;;3.75;65.46;101371.69;5011839;28;20397;-65
2023/03/29 00:10:03;;;;;;;10.85;4.53;;;;;;;3.68;67.41;101371.81;5026790;28;20071;-67
2023/03/29 00:12:31;;;;;;;14.43;4.63;;;;;;;3.66;67.12;101368.38;5031475;28;20148;-66
2023/03/29 00:14:59;;;;;;;9.98;4.70;;;;;;;3.64;67.88;101371.00;5042700;28;20049;-67
2023/03/29 00:17:27;;;;;;;16.52;5.22;;;;;;;3.58;68.52;101370.28;5029336;28;20381;-67
2023/03/29 00:19:54;;;;;;;12.13;4.13;;;;;;;3.58;67.50;101368.53;5050776;28;20053;-66
2023/03/29 00:22:21;;;;;;;18.63;4.45;;;;;;;3.60;67.52;101364.13;5044182;28;20055;-66
2023/03/29 00:24:52;;;;;;;12.63;3.85;;;;;;;3.55;68.55;101351.19;5044721;28;20056;-66
2023/03/29 00:27:20;;;;;;;13.65;3.78;;;;;;;3.46;69.28;101363.53;5043636;28;20144;-67
2023/03/29 00:29:48;;;;;;;13.68;4.07;;;;;;;3.49;68.02;101355.66;5045701;28;20131;-66
2023/03/29 00:32:15;;;;;;;11.43;3.65;;;;;;;3.50;68.32;101352.19;5043647;28;20057;-67
2023/03/29 00:34:44;;;;;;;12.75;4.45;;;;;;;3.46;69.62;101353.97;5047076;28;20049;-67
2023/03/29 00:37:18;;;;;;;11.65;4.75;;;;;;;3.45;69.71;101352.25;5044513;28;20434;-66
2023/03/29 00:39:45;;;;;;;11.80;4.40;;;;;;;3.41;69.99;101353.19;5045579;28;20083;-66
2023/03/29 00:42:17;;;;;;;10.48;3.95;;;;;;;3.38;69.98;101353.28;5043424;28;20033;-66
2023/03/29 00:45:10;;;;;;;11.50;4.55;;;;;;;3.26;70.33;101341.31;5024813;28;20070;-68
2023/03/29 00:47:51;;;;;;;13.20;3.50;;;;;;;3.24;70.74;101345.69;5044700;28;20049;-66
2023/03/29 00:50:28;;;;;;;8.32;3.20;;;;;;;3.17;71.07;101344.06;5038811;28;20045;-66
2023/03/29 00:53:27;;;;;;;12.02;4.28;;;;;;;3.17;70.80;101343.22;5027282;28;20475;-66
2023/03/29 00:55:56;;;;;;;11.50;4.28;;;;;;;3.21;70.44;101337.94;5034029;28;20042;-66
2023/03/29 00:58:27;;;;;;;8.38;3.63;;;;;;;3.16;70.78;101336.31;5032709;28;20052;-66
2023/03/29 01:01:03;;;;;;;9.90;4.30;;;;;;;3.19;70.82;101331.03;5049871;28;20051;-67
2023/03/29 01:03:40;;;;;;;8.60;3.75;;;;;;;3.13;70.87;101325.94;5052241;28;20401;-67
2023/03/29 01:06:09;;;;;;;19.83;3.85;;;;;;;3.15;70.93;101318.97;5046420;28;20052;-67
2023/03/29 01:08:42;;;;;;;11.02;4.22;;;;;;;3.12;70.76;101316.44;5044096;28;20136;-67
2023/03/29 01:11:19;;;;;;;10.70;3.47;;;;;;;3.19;70.36;101316.28;5044844;28;20049;-67
2023/03/29 01:13:50;;;;;;;8.90;3.00;;;;;;;3.13;70.65;101308.59;5012471;28;20064;-67
2023/03/29 01:16:18;;;;;;;10.65;3.63;;;;;;;3.12;70.98;101308.63;5043291;28;20041;-67
2023/03/29 01:18:47;;;;;;;11.30;3.75;;;;;;;3.13;71.04;101312.94;5029913;28;20067;-66
2023/03/29 01:21:19;;;;;;;10.93;4.05;;;;;;;3.10;71.20;101297.38;5049616;28;20659;-68
2023/03/29 01:24:08;;;;;;;8.57;3.60;;;;;;;3.08;71.23;101299.16;5047319;28;20041;-66
2023/03/29 01:26:56;;;;;;;9.35;3.40;;;;;;;3.03;71.90;101289.69;4997654;28;20053;-68
2023/03/29 01:29:27;;;;;;;11.82;3.83;;;;;;;2.98;71.98;101282.84;5030125;28;20051;-65
2023/03/29 01:32:03;;;;;;;11.70;3.70;;;;;;;3.03;71.58;101283.63;5030489;28;20059;-66
2023/03/29 01:34:42;;;;;;;6.72;3.50;;;;;;;3.02;71.72;101287.13;5047151;28;20541;-66
2023/03/29 01:37:23;;;;;;;9.32;3.20;;;;;;;3.01;71.67;101272.38;5032850;28;20143;-66
2023/03/29 01:39:51;;;;;;;16.10;4.13;;;;;;;3.00;72.10;101268.06;5019446;28;20034;-66
2023/03/29 01:42:45;;;;;;;9.63;3.85;;;;;;;2.96;72.26;101269.84;5029668;28;20057;-66
2023/03/29 01:45:19;;;;;;;8.60;3.53;;;;;;;3.00;72.04;101260.25;5030329;28;20211;-65
2023/03/29 01:47:58;;;;;;;9.48;2.88;;;;;;;2.99;72.21;101251.59;5029255;28;20049;-66
2023/03/29 01:50:43;;;;;;;10.25;2.95;;;;;;;2.97;71.48;101253.38;5046545;28;20041;-64
2023/03/29 01:53:16;;;;;;;10.13;3.10;;;;;;;2.93;72.07;101249.13;5016485;28;20099;-67
2023/03/29 01:55:50;;;;;;;12.27;3.40;;;;;;;3.01;71.64;101243.75;5038926;28;20140;-67
2023/03/29 01:58:17;;;;;;;11.38;2.72;;;;;;;2.98;71.87;101241.25;5020996;28;20132;-67
2023/03/29 02:00:45;;;;;;;7.95;3.08;;;;;;;2.94;72.27;101235.22;5047049;28;20051;-67
2023/03/29 02:03:16;;;;;;;12.95;3.75;;;;;;;2.93;71.97;101227.47;5042611;28;20041;-67
2023/03/29 02:05:44;;;;;;;6.93;2.83;;;;;;;2.92;72.12;101223.97;5047587;28;20122;-66
2023/03/29 02:08:14;;;;;;;14.77;3.45;;;;;;;2.87;71.87;101223.19;5047683;28;20140;-66
2023/03/29 02:10:41;;;;;;;7.68;3.25;;;;;;;2.85;72.45;101221.53;5024846;28;20079;-68
2023/03/29 02:13:08;;;;;;;12.68;3.60;;;;;;;2.81;72.31;101223.31;5019605;28;20048;-67
2023/03/29 02:15:36;;;;;;;15.55;3.78;;;;;;;2.83;72.36;101224.13;5045131;28;20049;-66
2023/03/29 02:18:05;;;;;;;8.63;2.85;;;;;;;2.84;72.58;101220.69;5041687;28;20132;-67
2023/03/29 02:20:37;;;;;;;14.15;2.92;;;;;;;2.84;72.88;101222.41;5039964;28;20437;-67
2023/03/29 02:23:16;;;;;;;13.25;3.40;;;;;;;2.80;72.38;101213.81;5038586;28;20383;-66
2023/03/29 02:25:44;;;;;;;13.35;3.25;;;;;;;2.78;72.99;101210.38;5040067;28;20041;-69
2023/03/29 02:28:12;;;;;;;13.90;3.33;;;;;;;2.76;73.08;101207.81;5024604;28;20045;-66
2023/03/29 02:30:41;;;;;;;10.10;3.10;;;;;;;2.78;72.71;101199.97;5026049;28;20050;-66
2023/03/29 02:33:14;;;;;;;14.50;3.90;;;;;;;2.75;72.86;101202.63;5030820;28;20053;-66
2023/03/29 02:35:49;;;;;;;9.80;3.53;;;;;;;2.75;73.06;101198.28;5036495;28;20136;-67
2023/03/29 02:38:19;;;;;;;13.00;4.63;;;;;;;2.70;73.71;101188.84;5040940;28;20056;-66
2023/03/29 02:40:51;;;;;;;12.40;4.60;;;;;;;2.71;72.98;101183.63;5044247;28;20136;-66
2023/03/29 02:43:20;;;;;;;10.18;4.00;;;;;;;2.73;72.78;101183.59;5030216;28;20520;-66
2023/03/29 02:45:51;;;;;;;16.23;4.28;;;;;;;2.72;72.88;101177.53;5024843;28;20053;-66
2023/03/29 02:48:21;;;;;;;11.07;3.58;;;;;;;2.74;73.02;101173.16;5045248;28;20790;-66
2023/03/29 02:50:50;;;;;;;11.48;4.43;;;;;;;2.71;73.10;101177.56;5026977;28;20046;-66
2023/03/29 02:53:21;;;;;;;11.52;4.38;;;;;;;2.71;73.41;101170.63;5026268;28;20052;-67
2023/03/29 02:55:51;;;;;;;14.65;4.50;;;;;;;2.68;73.20;101172.41;5030138;28;20041;-66
2023/03/29 02:58:19;;;;;;;11.32;4.82;;;;;;;2.68;73.83;101164.63;5023871;28;20140;-66
2023/03/29 03:00:53;;;;;;;11.00;4.65;;;;;;;2.59;73.99;101164.78;5041175;28;20053;-67
2023/03/29 03:03:20;;;;;;;14.07;5.45;;;;;;;2.60;73.99;101164.75;5031760;28;20056;-66
2023/03/29 03:05:48;;;;;;;11.18;4.78;;;;;;;2.57;74.09;101166.53;5042778;28;20052;-67
2023/03/29 03:08:15;;;;;;;13.30;4.88;;;;;;;2.60;74.15;101169.09;5045763;28;20076;-67
2023/03/29 03:10:44;;;;;;;16.90;5.43;;;;;;;2.51;74.48;101164.91;5041620;28;20052;-68
2023/03/29 03:13:12;;;;;;;13.25;5.47;;;;;;;2.45;74.99;101160.69;5039491;28;20064;-66
2023/03/29 03:15:41;;;;;;;11.65;4.50;;;;;;;2.48;74.44;101158.03;5032050;28;20056;-67
2023/03/29 03:18:09;;;;;;;13.85;5.43;;;;;;;2.46;74.55;101148.53;5044839;28;20400;-68
2023/03/29 03:20:36;;;;;;;12.48;5.25;;;;;;;2.44;75.00;101147.72;5021282;28;20139;-67
2023/03/29 03:23:03;;;;;;;14.88;5.50;;;;;;;2.36;75.54;101149.59;5045004;28;20501;-67
2023/03/29 03:25:34;;;;;;;14.05;4.78;;;;;;;2.36;75.20;101137.44;5028087;28;20048;-67
2023/03/29 03:28:02;;;;;;;13.50;5.95;;;;;;;2.32;75.62;101138.38;5046529;28;20049;-66
2023/03/29 03:30:29;;;;;;;16.55;5.30;;;;;;;2.24;75.93;101133.31;5032358;28;20053;-68
2023/03/29 03:32:56;;;;;;;18.05;6.07;;;;;;;2.21;76.71;101133.38;5056913;28;20041;-68
2023/03/29 03:35:23;;;;;;;11.00;4.78;;;;;;;2.22;76.18;101137.69;5050467;28;20140;-66
2023/03/29 03:37:51;;;;;;;14.02;6.30;;;;;;;2.24;76.26;101135.06;5049033;28;20051;-67
2023/03/29 03:40:19;;;;;;;11.43;4.93;;;;;;;2.16;76.51;101131.72;5031089;28;20131;-67
2023/03/29 03:42:47;;;;;;;10.65;5.32;;;;;;;2.18;76.51;101137.75;5047229;28;20060;-66
2023/03/29 03:45:14;;;;;;;11.25;5.50;;;;;;;2.26;76.10;101125.50;5050798;28;20052;-68
2023/03/29 03:47:42;;;;;;;15.60;5.60;;;;;;;2.18;76.47;101130.81;5044629;28;20049;-68
2023/03/29 03:50:10;;;;;;;16.50;5.25;;;;;;;2.19;76.60;101131.66;5026050;28;20056;-67
2023/03/29 03:52:38;;;;;;;11.95;5.63;;;;;;;2.11;76.68;101124.00;5048091;28;20144;-67
2023/03/29 03:55:05;;;;;;;16.13;5.13;;;;;;;2.15;76.58;101123.06;5042758;28;20055;-67
2023/03/29 03:57:36;;;;;;;15.10;5.55;;;;;;;2.16;76.54;101127.41;5030665;28;20049;-66
2023/03/29 04:00:20;;;;;;;11.98;4.93;;;;;;;2.08;76.84;101123.22;5031911;28;20694;-67
2023/03/29 04:02:48;;;;;;;11.88;5.53;;;;;;;2.11;76.53;101120.53;5046079;28;20048;-66
2023/03/29 04:05:17;;;;;;;9.05;4.20;;;;;;;2.09;76.75;101122.31;5045729;28;20136;-67
2023/03/29 04:07:44;;;;;;;15.07;4.80;;;;;;;2.09;76.40;101117.13;5044919;28;21070;-68
2023/03/29 04:10:12;;;;;;;9.48;4.43;;;;;;;2.07;76.48;101124.06;5050281;28;20051;-67
2023/03/29 04:12:39;;;;;;;10.93;3.95;;;;;;;2.11;76.43;101124.00;5033240;28;20972;-66
2023/03/29 04:15:07;;;;;;;14.80;5.13;;;;;;;2.13;76.39;101124.00;5041871;28;20057;-67
2023/03/29 04:17:34;;;;;;;19.38;5.30;;;;;;;2.08;76.49;101123.22;5026782;28;20057;-68
2023/03/29 04:20:10;;;;;;;13.10;3.90;;;;;;;2.01;76.47;101122.44;5043625;28;20041;-67
2023/03/29 04:22:38;;;;;;;8.13;3.47;;;;;;;2.02;76.37;101116.34;5045888;28;20057;-67
2023/03/29 04:25:07;;;;;;;12.90;3.83;;;;;;;2.00;76.40;101115.53;5049104;28;20158;-66
2023/03/29 04:27:35;;;;;;;14.68;4.00;;;;;;;1.96;76.37;101113.88;5047540;28;20051;-67
2023/03/29 04:30:03;;;;;;;10.73;3.97;;;;;;;1.91;76.29;101113.09;5044048;28;20045;-68
2023/03/29 04:32:30;;;;;;;10.77;3.55;;;;;;;1.95;76.32;101114.75;5048344;28;20127;-67
2023/03/29 04:35:03;;;;;;;8.65;3.33;;;;;;;1.95;75.89;101107.81;5042210;28;20083;-66
2023/03/29 04:37:31;;;;;;;13.95;4.13;;;;;;;1.97;75.99;101102.59;5043605;28;20049;-67
2023/03/29 04:39:59;;;;;;;13.68;3.95;;;;;;;1.99;75.64;101106.88;5046412;28;20126;-66
2023/03/29 04:42:27;;;;;;;12.13;4.53;;;;;;;1.95;75.95;101106.97;5029325;28;20053;-67
2023/03/29 04:44:54;;;;;;;15.07;3.88;;;;;;;1.96;75.87;101103.47;5045467;28;20127;-66
2023/03/29 04:47:21;;;;;;;10.25;3.50;;;;;;;1.90;75.77;101096.66;5043013;28;20059;-66
2023/03/29 04:49:49;;;;;;;7.35;3.50;;;;;;;1.89;76.27;101101.84;5042486;28;20060;-67
2023/03/29 04:52:16;;;;;;;12.82;4.85;;;;;;;1.87;76.26;101096.69;5043728;28;20045;-67
2023/03/29 04:54:43;;;;;;;14.88;4.03;;;;;;;1.77;76.43;101097.72;5045019;28;20049;-67
2023/03/29 04:57:11;;;;;;;14.60;4.25;;;;;;;1.72;77.14;101104.72;5030947;28;20135;-66
2023/03/29 04:59:38;;;;;;;7.38;3.55;;;;;;;1.78;77.13;101096.84;5046514;28;20183;-66
2023/03/29 05:02:06;;;;;;;11.10;4.10;;;;;;;1.77;77.06;101095.97;5044042;28;20053;-66
2023/03/29 05:04:37;;;;;;;11.93;3.95;;;;;;;1.72;77.53;101095.19;5039864;28;20204;-67
2023/03/29 05:07:05;;;;;;;8.23;3.92;;;;;;;1.67;77.45;101096.16;5029323;28;20059;-66
2023/03/29 05:09:34;;;;;;;13.05;4.40;;;;;;;1.72;77.70;101094.34;5043335;28;20497;-66
2023/03/29 05:12:02;;;;;;;10.95;3.80;;;;;;;1.71;77.15;101083.09;5028958;28;20517;-68
2023/03/29 05:14:29;;;;;;;11.50;4.63;;;;;;;1.72;77.53;101079.63;5042083;28;20052;-66
2023/03/29 05:16:57;;;;;;;12.35;3.85;;;;;;;1.75;77.32;101076.97;5046452;28;20046;-67
2023/03/29 05:19:24;;;;;;;15.35;4.75;;;;;;;1.80;76.99;101079.47;5044330;28;20054;-66
2023/03/29 05:21:51;;;;;;;13.55;4.70;;;;;;;1.84;76.74;101082.88;5046830;28;20132;-66
2023/03/29 05:24:20;;;;;;;15.88;4.50;;;;;;;1.90;76.73;101077.63;5040024;28;20053;-67
2023/03/29 05:26:50;;;;;;;12.55;4.25;;;;;;;1.84;77.21;101082.88;5044447;28;20088;-67
2023/03/29 05:29:18;;;;;;;15.48;4.40;;;;;;;1.89;76.76;101074.19;5040872;28;20059;-66
2023/03/29 05:31:45;;;;;;;12.48;4.22;;;;;;;1.91;76.56;101074.13;5032935;28;20132;-67
2023/03/29 05:34:13;;;;;;;16.77;4.70;;;;;;;1.95;76.61;101074.06;5048908;28;20060;-67
2023/03/29 05:36:41;;;;;;;13.48;4.35;;;;;;;1.98;76.43;101068.81;5045361;28;20095;-66
2023/03/29 05:39:09;;;;;;;9.07;4.10;;;;;;;2.11;75.59;101074.66;5047104;28;20049;-67
2023/03/29 05:41:37;;;;;;;14.88;4.50;;;;;;;2.01;76.11;101065.31;5043864;28;20059;-66
2023/03/29 05:44:05;;;;;;;20.02;4.30;;;;;;;1.99;76.51;101061.91;5037639;28;20052;-66
2023/03/29 05:46:33;;;;;;;10.07;5.35;;;;;;;2.00;76.24;101068.78;5025066;28;20052;-66
2023/03/29 05:49:01;;;;;;;18.13;4.32;;;;;;;2.10;75.72;101059.97;5044927;28;20049;-68
2023/03/29 05:51:28;;;;;;;11.95;4.45;;;;;;;2.17;75.46;101068.53;5029281;28;20257;-67
2023/03/29 05:53:55;;;;;;;13.00;4.78;;;;;;;2.22;74.98;101062.34;5042672;28;20064;-67
2023/03/29 05:56:23;;;;;;;14.57;4.20;;;;;;;2.19;75.21;101067.59;5047127;28;20117;-67
2023/03/29 05:58:53;;;;;;;16.33;4.75;;;;;;;2.24;74.64;101065.75;5045549;28;20068;-66
2023/03/29 06:01:23;;;;;;;13.30;4.75;;;;;;;2.24;74.29;101068.34;5042262;28;20063;-66
2023/03/29 06:03:51;;;;;;;18.83;6.25;;;;;;;2.23;74.27;101056.25;5025017;28;20055;-66
2023/03/29 06:06:21;;;;;;;8.32;4.07;;;;;;;2.34;74.12;101066.44;5043078;28;20517;-67
2023/03/29 06:08:49;;;;;;;11.48;4.05;;;;;;;2.34;73.67;101061.25;5014384;28;20076;-68
2023/03/29 06:11:17;;;;;;;14.05;4.60;;;;;;;2.43;73.87;101058.53;5041349;28;20068;-67
2023/03/29 06:13:44;;;;;;;15.27;4.65;;;;;;;2.49;73.42;101062.75;5049921;28;20083;-68
2023/03/29 06:16:12;;;;;;;10.90;4.82;;;;;;;2.54;73.44;101066.09;5044682;28;20045;-69
2023/03/29 06:18:40;;;;;;;11.60;3.45;;;;;;;2.59;72.93;101066.03;5044492;28;20120;-67
2023/03/29 06:21:08;;;;;;;15.95;4.43;;;;;;;2.65;72.43;101066.75;5047790;28;20041;-67
2023/03/29 06:23:35;;;;;;;9.68;4.20;;;;;;;2.76;72.30;101069.16;5012732;28;20099;-67
2023/03/29 06:26:04;;;;;;;12.23;4.22;;;;;;;2.75;71.95;101070.91;5046294;28;20084;-67
2023/03/29 06:28:31;;;;;;;12.52;4.35;;;;;;;2.79;71.86;101063.88;5044136;28;20051;-66
2023/03/29 06:31:01;;;;;;;10.57;3.95;;;;;;;2.80;71.84;101063.00;5047492;28;20048;-66
2023/03/29 06:33:31;;;;;;;12.77;4.13;;;;;;;2.88;71.58;101058.53;5044447;28;20049;-66
2023/03/29 06:35:58;;;;;;;16.00;4.78;;;;;;;2.84;71.19;101061.19;5044904;28;20088;-66
2023/03/29 06:38:27;;;;;;;8.02;3.75;;;;;;;2.89;71.33;101062.81;5044873;28;20049;-66
2023/03/29 06:41:02;;;;;;;11.30;3.97;;;;;;;2.98;70.83;101056.59;5012711;28;20055;-66
2023/03/29 06:43:31;;;;;;;;;;;;;;;3.01;70.90;101051.28;5043616;28;20050;-66
2023/03/29 06:46:00;;;;;;;10.07;3.83;;;;;;;3.06;70.64;101054.66;5041143;23;19927;-85
2023/03/29 06:48:28;;;;;;;10.07;4.25;;;;;;;3.05;70.61;101052.94;5012615;28;20232;-85
2023/03/29 06:50:56;;;;;;;12.45;3.83;;;;;;;3.07;70.50;101050.34;5011051;28;20108;-85
2023/03/29 06:53:23;;;;;;;12.45;4.93;;;;;;;3.14;69.96;101050.16;5039590;28;20048;-85
2023/03/29 06:56:07;;;;;;;10.75;4.70;;;;;;;3.23;69.27;101044.75;5033604;28;20161;-85
2023/03/29 06:58:35;;;;;;;15.20;4.63;;;;;;;3.11;69.01;101042.44;5035396;28;20076;-86
2023/03/29 07:01:03;;;;;;;13.15;4.15;;;;;;;3.13;69.43;101037.19;5017624;28;20049;-85
2023/03/29 07:03:33;;;;;;;11.18;3.95;;;;;;;3.18;69.75;101045.75;5023785;28;20491;-85
2023/03/29 07:06:08;;;;;;;12.43;4.32;;;;;;;3.26;69.27;101046.44;5020024;28;20048;-85
2023/03/29 07:08:42;;;;;;;14.75;4.35;;;;;;;3.19;68.93;101040.50;5040940;28;20029;-84
2023/03/29 07:11:30;;;;;;;14.60;3.70;;;;;;;3.34;68.93;101043.69;5034529;28;20037;-86
2023/03/29 07:14:02;;;;;;;13.00;3.95;;;;;;;3.26;68.58;101033.44;5023599;28;20054;-84
2023/03/29 07:16:31;;;;;;;13.15;4.68;;;;;;;3.34;69.13;101041.94;5043740;28;20056;-84
2023/03/29 07:18:59;;;;;;;9.93;3.90;;;;;;;3.47;67.88;101045.09;5028452;28;20052;-85
2023/03/29 07:21:27;;;;;;;15.88;4.80;;;;;;;3.51;68.48;101039.78;5044861;28;20061;-85
2023/03/29 07:23:57;;;;;;;8.63;4.05;;;;;;;3.50;68.83;101040.66;5039250;28;20061;-86
2023/03/29 07:26:24;;;;;;;12.27;4.60;;;;;;;3.58;68.27;101035.28;5019831;28;20072;-86
2023/03/29 07:28:56;;;;;;;11.68;4.68;;;;;;;3.62;67.73;101036.94;5032005;28;20392;-86
2023/03/29 07:31:23;;;;;;;16.13;3.97;;;;;;;3.66;67.69;101041.19;5028750;28;20056;-86
2023/03/29 07:33:52;;;;;;;13.00;4.28;;;;;;;3.74;68.06;101036.66;5014448;28;20045;-84
2023/03/29 07:36:19;;;;;;;15.70;4.07;;;;;;;3.91;67.38;101038.81;5009504;28;20522;-85
2023/03/29 07:38:47;;;;;;;12.50;4.32;;;;;;;3.89;67.47;101039.75;5010614;28;20075;-86
2023/03/29 07:41:15;;;;;;;8.82;3.88;;;;;;;3.88;66.84;101044.13;5020508;28;20073;-86
2023/03/29 07:43:42;;;;;;;18.80;4.57;;;;;;;4.01;66.61;101037.72;5000401;28;20076;-85
2023/03/29 07:46:10;;;;;;;14.35;4.63;;;;;;;3.96;66.72;101038.69;5019567;28;20285;-84
2023/03/29 07:48:38;;;;;;;13.38;4.47;;;;;;;4.11;66.25;101032.28;5034689;28;20132;-85
2023/03/29 07:51:06;;;;;;;12.10;4.55;;;;;;;4.25;66.43;101032.75;5043101;28;20037;-84
2023/03/29 07:53:33;;;;;;;12.70;4.30;;;;;;;4.34;67.05;101035.13;5036614;28;20053;-85
2023/03/29 07:56:02;;;;;;;16.17;4.78;;;;;;;4.48;66.12;101038.22;5028854;28;20044;-85
2023/03/29 07:58:29;;;;;;;13.85;4.05;;;;;;;4.50;65.53;101033.81;5032468;28;20462;-85
2023/03/29 08:00:59;;;;;;;10.63;4.05;;;;;;;4.65;65.06;101040.38;5024783;28;20463;-85
2023/03/29 08:03:28;;;;;;;6.70;3.92;;;;;;;4.64;65.33;101033.44;5017803;28;20094;-85
2023/03/29 08:05:55;;;;;;;12.88;4.47;;;;;;;4.82;65.13;101024.25;5021019;28;20053;-85
2023/03/29 08:08:26;;;;;;;9.50;4.20;;;;;;;4.92;64.54;101022.22;5034206;28;20028;-85
2023/03/29 08:10:54;;;;;;;9.45;4.10;;;;;;;4.99;64.22;101021.13;5000787;28;20072;-83
2023/03/29 08:13:21;;;;;;;7.93;4.05;;;;;;;5.19;64.13;101023.16;5028541;28;20080;-82
2023/03/29 08:15:49;;;;;;;7.93;3.85;;;;;;;5.29;64.29;101032.41;5016768;28;20088;-84
2023/03/29 08:18:16;;;;;;;11.82;4.47;;;;;;;5.34;63.30;101038.34;5003781;28;20101;-83
2023/03/29 08:20:43;;;;;;;9.90;3.55;;;;;;;5.30;63.45;101036.72;5025903;28;20048;-84
2023/03/29 08:23:11;;;;;;;10.15;4.18;;;;;;;5.34;62.73;101033.97;5033560;28;20100;-84
2023/03/29 08:25:38;;;;;;;11.43;4.28;;;;;;;5.48;62.98;101033.53;5047294;28;20033;-85
2023/03/29 08:28:05;;;;;;;10.88;3.13;;;;;;;5.45;62.95;101015.38;5007049;28;20068;-84
2023/03/29 08:30:32;;;;;;;8.85;4.10;;;;;;;5.49;63.13;101029.16;5027426;28;20021;-83
2023/03/29 08:33:00;;;;;;;9.82;3.58;;;;;;;5.46;62.78;101026.69;5013686;28;20069;-84
2023/03/29 08:35:27;;;;;;;7.82;4.07;;;;;;;5.54;62.78;101022.06;4999956;28;20053;-84
2023/03/29 08:37:56;;;;;;;13.05;3.78;;;;;;;5.48;62.93;101017.88;5011987;28;20141;-85
2023/03/29 08:40:26;;;;;;;9.38;3.67;;;;;;;5.51;63.16;101017.78;5013144;28;20061;-85
2023/03/29 08:43:05;;;;;;;10.43;3.30;;;;;;;5.61;62.93;101018.34;4997968;28;20108;-84
2023/03/29 08:45:43;;;;;;;8.32;3.70;;;;;;;5.71;62.82;101011.06;5015948;28;20055;-84
2023/03/29 08:48:22;;;;;;;10.65;3.35;;;;;;;5.78;62.76;101015.19;5013295;28;20093;-84
2023/03/29 08:50:54;;;;;;;10.93;3.28;;;;;;;5.78;62.36;101008.19;5021424;28;20075;-84
2023/03/29 08:53:29;;;;;;;10.57;3.75;;;;;;;5.75;62.75;100994.38;5050469;28;20118;-83
2023/03/29 08:56:08;;;;;;;9.05;3.67;;;;;;;5.71;63.06;100995.38;5043202;28;20021;-82
2023/03/29 08:58:37;;;;;;;10.25;3.85;;;;;;;5.79;63.55;100990.75;5040133;28;20049;-82
2023/03/29 09:01:07;;;;;;;13.15;3.90;;;;;;;5.84;63.58;100994.06;5031265;28;20036;-83
2023/03/29 09:03:48;;;;;;;15.45;4.00;;;;;;;5.95;63.57;100989.38;5014224;28;20080;-83
2023/03/29 09:06:23;;;;;;;5.47;3.17;;;;;;;6.13;64.07;100987.06;5016914;28;20032;-84
2023/03/29 09:08:52;;;;;;;9.43;3.40;;;;;;;6.30;63.79;101002.97;5031552;28;20049;-84
2023/03/29 09:11:22;;;;;;;7.20;2.80;;;;;;;6.52;63.43;100985.63;5015749;28;20140;-85
2023/03/29 09:14:08;;;;;;;6.72;2.65;;;;;;;6.71;63.51;100988.44;5035123;28;20245;-85
2023/03/29 09:17:02;;;;;;;8.93;3.38;;;;;;;6.90;63.32;100985.13;5030403;28;20117;-83
2023/03/29 09:19:46;;;;;;;5.53;2.67;;;;;;;6.95;63.22;100984.03;5053944;28;20029;-83
2023/03/29 09:22:38;;;;;;;5.82;3.17;;;;;;;6.99;63.12;100963.84;5059332;28;20045;-87
2023/03/29 09:25:40;;;;;;;5.25;3.05;;;;;;;7.06;63.47;100974.00;5040471;28;20041;-84
2023/03/29 09:28:33;;;;;;;6.50;3.30;;;;;;;7.08;63.60;100972.19;5021416;28;20037;-86
2023/03/29 09:31:06;;;;;;;6.73;3.07;;;;;;;7.12;63.27;100972.91;5025078;28;20056;-85
2023/03/29 09:33:42;;;;;;;9.48;3.03;;;;;;;7.21;63.55;100984.81;5022783;28;20546;-85
2023/03/29 09:36:22;;;;;;;9.68;3.65;;;;;;;7.20;63.85;100983.06;5003576;28;20511;-87
2023/03/29 09:38:53;;;;;;;7.43;3.00;;;;;;;7.31;63.15;100967.81;4983945;28;20103;-84
2023/03/29 09:41:30;;;;;;;7.35;3.45;;;;;;;7.41;63.06;100968.28;5030868;28;20053;-85
2023/03/29 09:43:59;;;;;;;8.20;3.53;;;;;;;7.45;63.24;100964.63;5008325;28;20125;-84
2023/03/29 09:46:38;;;;;;;7.95;3.13;;;;;;;7.53;62.58;100957.31;5028900;28;20470;-84
2023/03/29 09:49:11;;;;;;;9.68;3.53;;;;;;;7.63;63.00;100963.88;5035070;28;20029;-84
2023/03/29 09:51:45;;;;;;;11.05;3.22;;;;;;;7.83;62.24;100966.53;5011668;28;20041;-84
2023/03/29 09:54:12;;;;;;;7.40;3.00;;;;;;;8.02;61.84;100950.88;5003828;28;20767;-85
2023/03/29 09:56:40;;;;;;;6.68;3.00;;;;;;;8.16;61.21;100965.16;4996504;28;20052;-86
2023/03/29 09:59:11;;;;;;;5.63;3.10;;;;;;;8.25;61.55;100949.88;5013201;28;20119;-83
2023/03/29 10:01:44;;;;;;;8.57;2.45;;;;;;;8.34;61.06;100936.34;4996112;28;20053;-84
2023/03/29 10:04:12;;;;;;;4.75;3.03;;;;;;;8.48;61.16;100946.25;5007985;28;20053;-85
2023/03/29 10:06:48;;;;;;;6.43;2.78;;;;;;;8.58;60.27;100947.53;4988418;28;20045;-86
2023/03/29 10:09:21;;;;;;;4.80;2.53;;;;;;;8.78;60.74;100941.38;5040684;28;20048;-84
2023/03/29 10:11:57;;;;;;;6.55;2.38;;;;;;;8.65;59.02;100935.00;4995746;28;20527;-85
2023/03/29 10:14:41;;;;;;;3.72;2.30;;;;;;;8.72;59.70;100932.91;5018044;28;20033;-85
2023/03/29 10:17:16;;;;;;;6.88;2.95;;;;;;;8.79;59.03;100935.19;5007982;28;20096;-85
2023/03/29 10:19:50;;;;;;;6.00;2.47;;;;;;;8.87;59.19;100929.56;5000744;28;20460;-84
2023/03/29 10:22:22;;;;;;;5.80;2.55;;;;;;;9.09;58.75;100924.16;5007889;28;20050;-82
2023/03/29 10:24:52;;;;;;;5.47;2.70;;;;;;;9.23;57.65;100931.38;5003852;28;20029;-82
2023/03/29 10:27:23;;;;;;;6.88;2.70;;;;;;;9.14;58.21;100914.31;5016343;28;20067;-84
2023/03/29 10:29:54;;;;;;;5.40;2.83;;;;;;;9.28;58.51;100917.09;5000972;28;20476;-83
2023/03/29 10:32:21;;;;;;;6.03;2.72;;;;;;;9.48;57.15;100929.25;5017353;28;20042;-83
2023/03/29 10:34:49;;;;;;;4.35;2.30;;;;;;;9.50;57.76;100922.16;4998869;28;20065;-86
2023/03/29 10:37:18;;;;;;;7.97;2.50;;;;;;;9.55;58.08;100907.00;5016466;28;20128;-86
2023/03/29 10:39:46;;;;;;;6.10;2.30;;;;;;;9.77;56.72;100906.78;4982564;28;20194;-86
2023/03/29 10:42:16;;;;;;;4.78;2.17;;;;;;;9.87;56.48;100902.75;4999736;28;20049;-86
2023/03/29 10:44:57;;;;;;;7.10;2.38;;;;;;;9.89;56.39;100911.38;5009668;28;20037;-84
2023/03/29 10:47:30;;;;;;;4.20;2.40;;;;;;;10.00;56.54;100896.84;5016211;28;20099;-86
2023/03/29 10:49:57;;;;;;;10.38;2.78;;;;;;;9.87;56.64;100894.00;5015517;28;20065;-84
2023/03/29 10:52:25;;;;;;;7.63;2.30;;;;;;;9.81;56.06;100889.88;5003403;28;20045;-85
2023/03/29 10:54:54;;;;;;;6.40;2.60;;;;;;;9.75;55.90;100910.41;5029009;28;20096;-84
2023/03/29 10:57:44;;;;;;;4.68;2.53;;;;;;;9.92;56.10;100881.47;5040627;28;20041;-86
2023/03/29 11:00:57;;;;;;;8.05;3.00;;;;;;;9.80;56.80;100890.81;5022427;28;20072;-85
2023/03/29 11:03:24;;;;;;;4.68;2.65;;;;;;;9.88;57.00;100898.31;4980749;28;20512;-85
2023/03/29 11:05:57;;;;;;;6.90;2.40;;;;;;;9.71;56.22;100895.69;5000036;28;20073;-86
2023/03/29 11:08:53;;;;;;;7.25;2.70;;;;;;;9.72;56.83;100879.00;4988543;28;20512;-86
2023/03/29 11:11:47;;;;;;;4.22;2.58;;;;;;;9.69;56.78;100877.38;5020062;28;20206;-85
2023/03/29 11:14:30;;;;;;;4.97;2.60;;;;;;;9.71;56.64;100879.94;5028421;28;20057;-86
2023/03/29 11:17:07;;;;;;;5.07;2.15;;;;;;;9.61;56.74;100879.56;5023255;28;20120;-86
2023/03/29 11:19:41;;;;;;;4.82;2.70;;;;;;;9.79;56.93;100878.59;5007371;28;20052;-84
2023/03/29 11:22:51;;;;;;;5.85;2.10;;;;;;;9.76;56.80;100868.25;5042390;28;20079;-85
2023/03/29 11:25:40;;;;;;;8.73;2.88;;;;;;;9.89;57.10;100864.03;4975723;28;20055;-86
2023/03/29 11:28:18;;;;;;;4.07;2.47;;;;;;;9.90;57.34;100878.88;5001194;28;20060;-86
2023/03/29 11:30:52;;;;;;;4.55;2.60;;;;;;;9.55;56.72;100879.88;5011047;28;20044;-86
2023/03/29 11:33:51;;;;;;;8.75;3.03;;;;;;;9.63;57.13;100870.66;5021037;28;20061;-85
2023/03/29 11:36:51;;;;;;;5.05;2.45;;;;;;;9.88;55.83;100877.28;5019051;28;20038;-85
2023/03/29 11:39:38;;;;;;;4.70;2.17;;;;;;;9.93;55.02;100863.91;5018463;28;20059;-86
2023/03/29 11:42:25;;;;;;;5.15;2.15;;;;;;;10.13;55.14;100845.25;5028464;28;20064;-87
2023/03/29 11:44:54;;;;;;;3.40;2.28;;;;;;;10.38;54.81;100850.09;5035025;28;20501;-85
2023/03/29 11:47:26;;;;;;;5.18;2.70;;;;;;;10.41;54.25;100846.47;5029490;28;20161;-86
2023/03/29 11:49:58;;;;;;;6.15;2.88;;;;;;;10.59;54.17;100853.34;5025473;28;20061;-85
2023/03/29 11:52:33;;;;;;;5.22;2.50;;;;;;;10.48;54.13;100851.28;5008434;28;20137;-86